sensor_id;sensor_type;location;lat;lon;timestamp;temperature;humidity
423;DHT22;198;48.752;9.180;2023-12-22T00:02:13;6.50;99.90
423;DHT22;198;48.752;9.180;2023-12-22T00:04:38;6.60;99.90
423;DHT22;198;48.752;9.180;2023-12-22T00:07:04;6.60;99.90
423;DHT22;198;48.752;9.180;2023-12-22T00:09:29;6.70;99.90
423;DHT22;198;48.752;9.180;2023-12-22T00:11:55;6.80;99.90
423;DHT22;198;48.752;9.180;2023-12-22T00:14:20;6.80;99.90
423;DHT22;198;48.752;9.180;2023-12-22T00:16:46;6.90;99.90
423;DHT22;198;48.752;9.180;2023-12-22T00:19:11;6.90;99.90
423;DHT22;198;48.752;9.180;2023-12-22T00:21:37;7.00;99.90
423;DHT22;198;48.752;9.180;2023-12-22T00:24:03;7.10;99.90
423;DHT22;198;48.752;9.180;2023-12-22T00:26:28;7.20;99.90
423;DHT22;198;48.752;9.180;2023-12-22T00:28:54;7.10;99.90
423;DHT22;198;48.752;9.180;2023-12-22T00:31:19;7.10;99.90
423;DHT22;198;48.752;9.180;2023-12-22T00:33:45;7.20;99.90
423;DHT22;198;48.752;9.180;2023-12-22T00:36:10;7.20;99.90
423;DHT22;198;48.752;9.180;2023-12-22T00:38:36;7.10;99.90
423;DHT22;198;48.752;9.180;2023-12-22T00:41:01;7.10;99.90
423;DHT22;198;48.752;9.180;2023-12-22T00:43:27;7.10;99.90
423;DHT22;198;48.752;9.180;2023-12-22T00:45:52;7.10;99.90
423;DHT22;198;48.752;9.180;2023-12-22T00:48:18;7.10;99.90
423;DHT22;198;48.752;9.180;2023-12-22T00:50:43;7.10;99.90
423;DHT22;198;48.752;9.180;2023-12-22T00:53:09;7.10;99.90
423;DHT22;198;48.752;9.180;2023-12-22T00:55:35;7.10;99.90
423;DHT22;198;48.752;9.180;2023-12-22T00:58:00;7.10;99.90
423;DHT22;198;48.752;9.180;2023-12-22T01:00:26;7.10;99.90
423;DHT22;198;48.752;9.180;2023-12-22T01:02:51;7.10;99.90
423;DHT22;198;48.752;9.180;2023-12-22T01:05:17;7.00;99.90
423;DHT22;198;48.752;9.180;2023-12-22T01:07:42;7.00;99.90
423;DHT22;198;48.752;9.180;2023-12-22T01:10:08;7.00;99.90
423;DHT22;198;48.752;9.180;2023-12-22T01:12:34;7.00;99.90
423;DHT22;198;48.752;9.180;2023-12-22T01:15:00;7.00;99.90
423;DHT22;198;48.752;9.180;2023-12-22T01:17:25;7.00;99.90
423;DHT22;198;48.752;9.180;2023-12-22T01:19:51;7.00;99.90
423;DHT22;198;48.752;9.180;2023-12-22T01:22:16;6.90;99.90
423;DHT22;198;48.752;9.180;2023-12-22T01:24:42;6.80;99.90
423;DHT22;198;48.752;9.180;2023-12-22T01:27:09;6.80;99.90
423;DHT22;198;48.752;9.180;2023-12-22T01:29:35;6.80;99.90
423;DHT22;198;48.752;9.180;2023-12-22T01:32:00;6.80;99.90
423;DHT22;198;48.752;9.180;2023-12-22T01:34:26;6.70;99.90
423;DHT22;198;48.752;9.180;2023-12-22T01:36:51;6.70;99.90
423;DHT22;198;48.752;9.180;2023-12-22T01:39:17;6.70;99.90
423;DHT22;198;48.752;9.180;2023-12-22T01:41:43;6.60;99.90
423;DHT22;198;48.752;9.180;2023-12-22T01:44:08;6.60;99.90
423;DHT22;198;48.752;9.180;2023-12-22T01:46:34;6.50;99.90
423;DHT22;198;48.752;9.180;2023-12-22T01:49:01;6.50;99.90
423;DHT22;198;48.752;9.180;2023-12-22T01:51:31;6.40;99.90
423;DHT22;198;48.752;9.180;2023-12-22T01:53:57;6.40;99.90
423;DHT22;198;48.752;9.180;2023-12-22T01:56:23;6.40;99.90
423;DHT22;198;48.752;9.180;2023-12-22T01:58:51;6.40;99.90
423;DHT22;198;48.752;9.180;2023-12-22T02:01:18;6.30;99.90
423;DHT22;198;48.752;9.180;2023-12-22T02:03:44;6.30;99.90
423;DHT22;198;48.752;9.180;2023-12-22T02:06:10;6.30;99.90
423;DHT22;198;48.752;9.180;2023-12-22T02:08:36;6.30;99.90
423;DHT22;198;48.752;9.180;2023-12-22T02:11:02;6.30;99.90
423;DHT22;198;48.752;9.180;2023-12-22T02:13:28;6.30;99.90
423;DHT22;198;48.752;9.180;2023-12-22T02:16:01;6.30;99.90
423;DHT22;198;48.752;9.180;2023-12-22T02:18:33;6.30;99.90
423;DHT22;198;48.752;9.180;2023-12-22T02:21:00;6.20;99.90
423;DHT22;198;48.752;9.180;2023-12-22T02:23:26;6.20;99.90
423;DHT22;198;48.752;9.180;2023-12-22T02:25:57;6.20;99.90
423;DHT22;198;48.752;9.180;2023-12-22T02:28:23;6.20;99.90
423;DHT22;198;48.752;9.180;2023-12-22T02:31:09;6.20;99.90
423;DHT22;198;48.752;9.180;2023-12-22T02:33:39;6.10;99.90
423;DHT22;198;48.752;9.180;2023-12-22T02:36:07;6.20;99.90
423;DHT22;198;48.752;9.180;2023-12-22T02:38:34;6.30;99.90
423;DHT22;198;48.752;9.180;2023-12-22T02:41:01;6.40;99.90
423;DHT22;198;48.752;9.180;2023-12-22T02:43:27;6.40;99.90
423;DHT22;198;48.752;9.180;2023-12-22T02:45:53;6.60;99.90
423;DHT22;198;48.752;9.180;2023-12-22T02:48:19;6.70;99.90
423;DHT22;198;48.752;9.180;2023-12-22T02:50:44;6.70;99.90
423;DHT22;198;48.752;9.180;2023-12-22T02:53:10;6.80;99.90
423;DHT22;198;48.752;9.180;2023-12-22T02:55:35;6.90;99.90
423;DHT22;198;48.752;9.180;2023-12-22T02:58:01;6.90;99.90
423;DHT22;198;48.752;9.180;2023-12-22T03:00:26;7.00;99.90
423;DHT22;198;48.752;9.180;2023-12-22T03:02:52;7.00;99.90
423;DHT22;198;48.752;9.180;2023-12-22T03:05:17;7.00;99.90
423;DHT22;198;48.752;9.180;2023-12-22T03:07:43;7.00;99.90
423;DHT22;198;48.752;9.180;2023-12-22T03:10:08;7.10;99.90
423;DHT22;198;48.752;9.180;2023-12-22T03:12:34;7.10;99.90
423;DHT22;198;48.752;9.180;2023-12-22T03:14:59;7.10;99.90
423;DHT22;198;48.752;9.180;2023-12-22T03:17:25;7.10;99.90
423;DHT22;198;48.752;9.180;2023-12-22T03:19:50;7.10;99.90
423;DHT22;198;48.752;9.180;2023-12-22T03:22:16;7.10;99.90
423;DHT22;198;48.752;9.180;2023-12-22T03:24:41;7.20;99.90
423;DHT22;198;48.752;9.180;2023-12-22T03:27:07;7.10;99.90
423;DHT22;198;48.752;9.180;2023-12-22T03:29:32;7.20;99.90
423;DHT22;198;48.752;9.180;2023-12-22T03:31:58;7.20;99.90
423;DHT22;198;48.752;9.180;2023-12-22T03:34:23;7.20;99.90
423;DHT22;198;48.752;9.180;2023-12-22T03:36:49;7.20;99.90
423;DHT22;198;48.752;9.180;2023-12-22T03:39:15;7.20;99.90
423;DHT22;198;48.752;9.180;2023-12-22T03:41:41;7.30;99.90
423;DHT22;198;48.752;9.180;2023-12-22T03:44:06;7.30;99.90
423;DHT22;198;48.752;9.180;2023-12-22T03:46:32;7.30;99.90
423;DHT22;198;48.752;9.180;2023-12-22T03:48:58;7.30;99.90
423;DHT22;198;48.752;9.180;2023-12-22T03:51:23;7.30;99.90
423;DHT22;198;48.752;9.180;2023-12-22T03:53:49;7.40;99.90
423;DHT22;198;48.752;9.180;2023-12-22T03:56:14;7.40;99.90
423;DHT22;198;48.752;9.180;2023-12-22T03:58:40;7.40;99.90
423;DHT22;198;48.752;9.180;2023-12-22T04:01:05;7.30;99.90
423;DHT22;198;48.752;9.180;2023-12-22T04:03:33;7.00;99.90
423;DHT22;198;48.752;9.180;2023-12-22T04:06:02;6.90;99.90
423;DHT22;198;48.752;9.180;2023-12-22T04:08:28;6.80;99.90
423;DHT22;198;48.752;9.180;2023-12-22T04:10:53;6.70;99.90
423;DHT22;198;48.752;9.180;2023-12-22T04:13:19;6.70;99.90
423;DHT22;198;48.752;9.180;2023-12-22T04:15:44;6.70;99.90
423;DHT22;198;48.752;9.180;2023-12-22T04:18:10;6.60;99.90
423;DHT22;198;48.752;9.180;2023-12-22T04:20:35;6.60;99.90
423;DHT22;198;48.752;9.180;2023-12-22T04:23:00;6.60;99.90
423;DHT22;198;48.752;9.180;2023-12-22T04:25:26;6.50;99.90
423;DHT22;198;48.752;9.180;2023-12-22T04:27:52;6.50;99.90
423;DHT22;198;48.752;9.180;2023-12-22T04:30:17;6.50;99.90
423;DHT22;198;48.752;9.180;2023-12-22T04:32:43;6.40;99.90
423;DHT22;198;48.752;9.180;2023-12-22T04:35:09;6.40;99.90
423;DHT22;198;48.752;9.180;2023-12-22T04:37:34;6.40;99.90
423;DHT22;198;48.752;9.180;2023-12-22T04:40:00;6.30;99.90
423;DHT22;198;48.752;9.180;2023-12-22T04:42:26;6.30;99.90
423;DHT22;198;48.752;9.180;2023-12-22T04:44:52;6.30;99.90
423;DHT22;198;48.752;9.180;2023-12-22T04:47:17;6.30;99.90
423;DHT22;198;48.752;9.180;2023-12-22T04:49:43;6.20;99.90
423;DHT22;198;48.752;9.180;2023-12-22T04:52:09;6.20;99.90
423;DHT22;198;48.752;9.180;2023-12-22T04:54:35;6.20;99.90
423;DHT22;198;48.752;9.180;2023-12-22T04:57:00;6.20;99.90
423;DHT22;198;48.752;9.180;2023-12-22T04:59:26;6.20;99.90
423;DHT22;198;48.752;9.180;2023-12-22T05:01:51;6.20;99.90
423;DHT22;198;48.752;9.180;2023-12-22T05:04:17;6.20;99.90
423;DHT22;198;48.752;9.180;2023-12-22T05:06:43;6.20;99.90
423;DHT22;198;48.752;9.180;2023-12-22T05:09:10;6.20;99.90
423;DHT22;198;48.752;9.180;2023-12-22T05:11:36;6.30;99.90
423;DHT22;198;48.752;9.180;2023-12-22T05:14:02;6.30;99.90
423;DHT22;198;48.752;9.180;2023-12-22T05:16:27;6.30;99.90
423;DHT22;198;48.752;9.180;2023-12-22T05:18:56;6.30;99.90
423;DHT22;198;48.752;9.180;2023-12-22T05:21:22;6.30;99.90
423;DHT22;198;48.752;9.180;2023-12-22T05:23:47;6.30;99.90
423;DHT22;198;48.752;9.180;2023-12-22T05:26:20;6.30;99.90
423;DHT22;198;48.752;9.180;2023-12-22T05:28:45;6.40;99.90
423;DHT22;198;48.752;9.180;2023-12-22T05:31:11;6.40;99.90
423;DHT22;198;48.752;9.180;2023-12-22T05:33:37;6.40;99.90
423;DHT22;198;48.752;9.180;2023-12-22T05:36:03;6.50;99.90
423;DHT22;198;48.752;9.180;2023-12-22T05:38:28;6.50;99.90
423;DHT22;198;48.752;9.180;2023-12-22T05:40:55;6.60;99.90
423;DHT22;198;48.752;9.180;2023-12-22T05:43:20;6.60;99.90
423;DHT22;198;48.752;9.180;2023-12-22T05:45:46;6.60;99.90
423;DHT22;198;48.752;9.180;2023-12-22T05:48:11;6.60;99.90
423;DHT22;198;48.752;9.180;2023-12-22T05:50:37;6.60;99.90
423;DHT22;198;48.752;9.180;2023-12-22T05:53:02;6.60;99.90
423;DHT22;198;48.752;9.180;2023-12-22T05:55:28;6.60;99.90
423;DHT22;198;48.752;9.180;2023-12-22T05:57:54;6.70;99.90
423;DHT22;198;48.752;9.180;2023-12-22T06:00:21;6.70;99.90
423;DHT22;198;48.752;9.180;2023-12-22T06:02:46;6.80;99.90
423;DHT22;198;48.752;9.180;2023-12-22T06:05:12;6.90;99.90
423;DHT22;198;48.752;9.180;2023-12-22T06:07:37;7.00;99.90
423;DHT22;198;48.752;9.180;2023-12-22T06:10:03;7.10;99.90
423;DHT22;198;48.752;9.180;2023-12-22T06:12:28;7.10;99.90
423;DHT22;198;48.752;9.180;2023-12-22T06:14:54;7.30;99.90
423;DHT22;198;48.752;9.180;2023-12-22T06:17:19;7.30;99.90
423;DHT22;198;48.752;9.180;2023-12-22T06:19:45;7.30;99.90
423;DHT22;198;48.752;9.180;2023-12-22T06:22:10;7.40;99.90
423;DHT22;198;48.752;9.180;2023-12-22T06:24:36;7.40;99.90
423;DHT22;198;48.752;9.180;2023-12-22T06:27:01;7.40;99.90
423;DHT22;198;48.752;9.180;2023-12-22T06:29:27;7.40;99.90
423;DHT22;198;48.752;9.180;2023-12-22T06:31:52;7.40;99.90
423;DHT22;198;48.752;9.180;2023-12-22T06:34:18;7.50;99.90
423;DHT22;198;48.752;9.180;2023-12-22T06:36:44;7.50;99.90
423;DHT22;198;48.752;9.180;2023-12-22T06:39:09;7.50;99.90
423;DHT22;198;48.752;9.180;2023-12-22T06:41:35;7.60;99.90
423;DHT22;198;48.752;9.180;2023-12-22T06:44:00;7.50;99.90
423;DHT22;198;48.752;9.180;2023-12-22T06:46:26;7.60;99.90
423;DHT22;198;48.752;9.180;2023-12-22T06:48:52;7.60;99.90
423;DHT22;198;48.752;9.180;2023-12-22T06:51:26;7.60;99.90
423;DHT22;198;48.752;9.180;2023-12-22T06:53:53;7.60;99.90
423;DHT22;198;48.752;9.180;2023-12-22T06:58:46;7.60;99.90
423;DHT22;198;48.752;9.180;2023-12-22T07:01:22;7.60;99.90
423;DHT22;198;48.752;9.180;2023-12-22T07:03:48;7.70;99.90
423;DHT22;198;48.752;9.180;2023-12-22T07:06:17;7.70;99.90
423;DHT22;198;48.752;9.180;2023-12-22T07:08:43;7.70;99.90
423;DHT22;198;48.752;9.180;2023-12-22T07:11:10;7.70;99.90
423;DHT22;198;48.752;9.180;2023-12-22T07:13:36;7.60;99.90
423;DHT22;198;48.752;9.180;2023-12-22T07:16:02;7.60;99.90
423;DHT22;198;48.752;9.180;2023-12-22T07:18:28;7.60;99.90
423;DHT22;198;48.752;9.180;2023-12-22T07:20:57;7.60;99.90
423;DHT22;198;48.752;9.180;2023-12-22T07:23:23;7.60;99.90
423;DHT22;198;48.752;9.180;2023-12-22T07:25:49;7.60;99.90
423;DHT22;198;48.752;9.180;2023-12-22T07:28:14;7.60;99.90
423;DHT22;198;48.752;9.180;2023-12-22T07:30:41;7.60;99.90
423;DHT22;198;48.752;9.180;2023-12-22T07:33:06;7.60;99.90
423;DHT22;198;48.752;9.180;2023-12-22T07:35:32;7.60;99.90
423;DHT22;198;48.752;9.180;2023-12-22T07:37:57;7.60;99.90
423;DHT22;198;48.752;9.180;2023-12-22T07:40:23;7.60;99.90
423;DHT22;198;48.752;9.180;2023-12-22T07:42:48;7.60;99.90
423;DHT22;198;48.752;9.180;2023-12-22T07:45:15;7.60;99.90
423;DHT22;198;48.752;9.180;2023-12-22T07:47:41;7.60;99.90
423;DHT22;198;48.752;9.180;2023-12-22T07:50:07;7.60;99.90
423;DHT22;198;48.752;9.180;2023-12-22T07:52:35;7.60;99.90
423;DHT22;198;48.752;9.180;2023-12-22T07:55:08;7.60;99.90
423;DHT22;198;48.752;9.180;2023-12-22T07:57:37;7.50;99.90
423;DHT22;198;48.752;9.180;2023-12-22T08:00:03;7.50;99.90
423;DHT22;198;48.752;9.180;2023-12-22T08:02:29;7.50;99.90
423;DHT22;198;48.752;9.180;2023-12-22T08:04:55;7.40;99.90
423;DHT22;198;48.752;9.180;2023-12-22T08:07:21;7.40;99.90
423;DHT22;198;48.752;9.180;2023-12-22T08:09:46;7.40;99.90
423;DHT22;198;48.752;9.180;2023-12-22T08:12:12;7.30;99.90
423;DHT22;198;48.752;9.180;2023-12-22T08:14:37;7.20;99.90
423;DHT22;198;48.752;9.180;2023-12-22T08:17:03;7.20;99.90
423;DHT22;198;48.752;9.180;2023-12-22T08:19:29;7.20;99.90
423;DHT22;198;48.752;9.180;2023-12-22T08:21:54;7.10;99.90
423;DHT22;198;48.752;9.180;2023-12-22T08:24:21;7.10;99.90
423;DHT22;198;48.752;9.180;2023-12-22T08:26:46;7.00;99.90
423;DHT22;198;48.752;9.180;2023-12-22T08:29:12;6.90;99.90
423;DHT22;198;48.752;9.180;2023-12-22T08:31:37;6.90;99.90
423;DHT22;198;48.752;9.180;2023-12-22T08:34:03;6.90;99.90
423;DHT22;198;48.752;9.180;2023-12-22T08:36:28;6.80;99.90
423;DHT22;198;48.752;9.180;2023-12-22T08:38:54;6.80;99.90
423;DHT22;198;48.752;9.180;2023-12-22T08:41:20;6.80;99.90
423;DHT22;198;48.752;9.180;2023-12-22T08:43:45;6.80;99.90
423;DHT22;198;48.752;9.180;2023-12-22T08:46:11;6.80;99.90
423;DHT22;198;48.752;9.180;2023-12-22T08:48:38;6.80;99.90
423;DHT22;198;48.752;9.180;2023-12-22T08:51:03;6.70;99.90
423;DHT22;198;48.752;9.180;2023-12-22T08:53:29;6.80;99.90
423;DHT22;198;48.752;9.180;2023-12-22T08:56:01;6.90;99.90
423;DHT22;198;48.752;9.180;2023-12-22T08:58:27;6.80;99.90
423;DHT22;198;48.752;9.180;2023-12-22T09:00:52;6.80;99.90
423;DHT22;198;48.752;9.180;2023-12-22T09:03:18;6.80;99.90
423;DHT22;198;48.752;9.180;2023-12-22T09:05:43;6.90;99.90
423;DHT22;198;48.752;9.180;2023-12-22T09:08:10;6.90;99.90
423;DHT22;198;48.752;9.180;2023-12-22T09:10:36;6.90;99.90
423;DHT22;198;48.752;9.180;2023-12-22T09:13:01;6.90;99.90
423;DHT22;198;48.752;9.180;2023-12-22T09:15:27;6.90;99.90
423;DHT22;198;48.752;9.180;2023-12-22T09:17:52;6.90;99.90
423;DHT22;198;48.752;9.180;2023-12-22T09:20:18;7.00;99.90
423;DHT22;198;48.752;9.180;2023-12-22T09:22:44;6.90;99.90
423;DHT22;198;48.752;9.180;2023-12-22T09:25:09;6.90;99.90
423;DHT22;198;48.752;9.180;2023-12-22T09:27:35;6.90;99.90
423;DHT22;198;48.752;9.180;2023-12-22T09:30:00;6.90;99.90
423;DHT22;198;48.752;9.180;2023-12-22T09:32:26;7.00;99.90
423;DHT22;198;48.752;9.180;2023-12-22T09:34:52;7.00;99.90
423;DHT22;198;48.752;9.180;2023-12-22T09:37:17;7.00;99.90
423;DHT22;198;48.752;9.180;2023-12-22T09:39:43;7.00;99.90
423;DHT22;198;48.752;9.180;2023-12-22T09:42:08;7.00;99.90
423;DHT22;198;48.752;9.180;2023-12-22T09:44:36;7.10;99.90
423;DHT22;198;48.752;9.180;2023-12-22T09:47:04;7.10;99.90
423;DHT22;198;48.752;9.180;2023-12-22T09:49:30;7.10;99.90
423;DHT22;198;48.752;9.180;2023-12-22T09:51:57;7.20;99.90
423;DHT22;198;48.752;9.180;2023-12-22T09:54:23;7.20;99.90
423;DHT22;198;48.752;9.180;2023-12-22T09:56:51;7.30;99.90
423;DHT22;198;48.752;9.180;2023-12-22T09:59:17;7.30;99.90
423;DHT22;198;48.752;9.180;2023-12-22T10:01:45;7.40;99.90
423;DHT22;198;48.752;9.180;2023-12-22T10:04:14;7.50;99.90
423;DHT22;198;48.752;9.180;2023-12-22T10:06:41;7.60;99.90
423;DHT22;198;48.752;9.180;2023-12-22T10:09:07;7.70;99.90
423;DHT22;198;48.752;9.180;2023-12-22T10:11:35;7.80;99.90
423;DHT22;198;48.752;9.180;2023-12-22T10:14:02;7.80;99.90
423;DHT22;198;48.752;9.180;2023-12-22T10:16:28;7.80;99.90
423;DHT22;198;48.752;9.180;2023-12-22T10:18:55;7.80;99.90
423;DHT22;198;48.752;9.180;2023-12-22T10:21:20;7.90;99.90
423;DHT22;198;48.752;9.180;2023-12-22T10:23:46;8.00;99.90
423;DHT22;198;48.752;9.180;2023-12-22T10:26:12;8.00;99.90
423;DHT22;198;48.752;9.180;2023-12-22T10:28:37;8.10;99.90
423;DHT22;198;48.752;9.180;2023-12-22T10:31:03;8.20;99.90
423;DHT22;198;48.752;9.180;2023-12-22T10:33:32;8.20;99.90
423;DHT22;198;48.752;9.180;2023-12-22T10:36:01;8.20;99.90
423;DHT22;198;48.752;9.180;2023-12-22T10:38:33;8.30;99.90
423;DHT22;198;48.752;9.180;2023-12-22T10:41:01;8.20;99.90
423;DHT22;198;48.752;9.180;2023-12-22T10:43:26;8.20;99.90
423;DHT22;198;48.752;9.180;2023-12-22T10:45:52;8.20;99.90
423;DHT22;198;48.752;9.180;2023-12-22T10:48:18;8.20;99.90
423;DHT22;198;48.752;9.180;2023-12-22T10:50:44;8.20;99.90
423;DHT22;198;48.752;9.180;2023-12-22T10:53:13;8.10;99.90
423;DHT22;198;48.752;9.180;2023-12-22T10:55:38;8.10;99.90
423;DHT22;198;48.752;9.180;2023-12-22T10:58:05;8.10;99.90
423;DHT22;198;48.752;9.180;2023-12-22T11:00:36;8.00;99.90
423;DHT22;198;48.752;9.180;2023-12-22T11:03:06;7.90;99.90
423;DHT22;198;48.752;9.180;2023-12-22T11:05:34;8.00;99.90
423;DHT22;198;48.752;9.180;2023-12-22T11:08:02;8.00;99.90
423;DHT22;198;48.752;9.180;2023-12-22T11:10:30;8.00;99.90
423;DHT22;198;48.752;9.180;2023-12-22T11:12:57;7.90;99.90
423;DHT22;198;48.752;9.180;2023-12-22T11:15:24;7.90;99.90
423;DHT22;198;48.752;9.180;2023-12-22T11:17:51;7.80;99.90
423;DHT22;198;48.752;9.180;2023-12-22T11:20:18;7.70;99.90
423;DHT22;198;48.752;9.180;2023-12-22T11:22:44;7.60;99.90
423;DHT22;198;48.752;9.180;2023-12-22T11:25:10;7.50;99.90
423;DHT22;198;48.752;9.180;2023-12-22T11:27:37;7.50;99.90
423;DHT22;198;48.752;9.180;2023-12-22T11:30:05;7.40;99.90
423;DHT22;198;48.752;9.180;2023-12-22T11:32:34;7.40;99.90
423;DHT22;198;48.752;9.180;2023-12-22T11:35:00;7.40;99.90
423;DHT22;198;48.752;9.180;2023-12-22T11:37:25;7.30;99.90
423;DHT22;198;48.752;9.180;2023-12-22T11:39:51;7.30;99.90
423;DHT22;198;48.752;9.180;2023-12-22T11:42:39;7.30;99.90
423;DHT22;198;48.752;9.180;2023-12-22T11:45:10;7.20;99.90
423;DHT22;198;48.752;9.180;2023-12-22T11:47:37;7.20;99.90
423;DHT22;198;48.752;9.180;2023-12-22T11:50:04;7.10;99.90
423;DHT22;198;48.752;9.180;2023-12-22T11:52:29;7.10;99.90
423;DHT22;198;48.752;9.180;2023-12-22T11:54:56;7.10;99.90
423;DHT22;198;48.752;9.180;2023-12-22T11:59:54;7.10;99.90
423;DHT22;198;48.752;9.180;2023-12-22T12:02:21;7.20;99.90
423;DHT22;198;48.752;9.180;2023-12-22T12:04:47;7.20;99.90
423;DHT22;198;48.752;9.180;2023-12-22T12:15:33;7.10;99.90
423;DHT22;198;48.752;9.180;2023-12-22T12:18:00;7.20;99.90
423;DHT22;198;48.752;9.180;2023-12-22T12:20:27;7.20;99.90
423;DHT22;198;48.752;9.180;2023-12-22T12:22:53;7.20;99.90
423;DHT22;198;48.752;9.180;2023-12-22T12:25:28;7.10;99.90
423;DHT22;198;48.752;9.180;2023-12-22T12:28:07;7.10;99.90
423;DHT22;198;48.752;9.180;2023-12-22T12:30:35;7.10;99.90
423;DHT22;198;48.752;9.180;2023-12-22T12:33:08;7.10;99.90
423;DHT22;198;48.752;9.180;2023-12-22T12:35:35;7.10;99.90
423;DHT22;198;48.752;9.180;2023-12-22T12:38:01;7.10;99.90
423;DHT22;198;48.752;9.180;2023-12-22T12:40:28;7.10;99.90
423;DHT22;198;48.752;9.180;2023-12-22T12:42:56;7.10;99.90
423;DHT22;198;48.752;9.180;2023-12-22T12:45:25;7.10;99.90
423;DHT22;198;48.752;9.180;2023-12-22T12:48:01;7.10;99.90
423;DHT22;198;48.752;9.180;2023-12-22T12:50:27;7.10;99.90
423;DHT22;198;48.752;9.180;2023-12-22T12:52:54;7.10;99.90
423;DHT22;198;48.752;9.180;2023-12-22T12:55:24;7.10;99.90
423;DHT22;198;48.752;9.180;2023-12-22T12:57:51;7.10;99.90
423;DHT22;198;48.752;9.180;2023-12-22T13:00:37;7.10;99.90
423;DHT22;198;48.752;9.180;2023-12-22T13:03:04;7.10;99.90
423;DHT22;198;48.752;9.180;2023-12-22T13:05:33;7.10;99.90
423;DHT22;198;48.752;9.180;2023-12-22T13:08:12;7.10;99.90
423;DHT22;198;48.752;9.180;2023-12-22T13:10:38;7.20;99.90
423;DHT22;198;48.752;9.180;2023-12-22T13:13:05;7.20;99.90
423;DHT22;198;48.752;9.180;2023-12-22T13:15:31;7.20;99.90
423;DHT22;198;48.752;9.180;2023-12-22T13:17:57;7.30;99.90
423;DHT22;198;48.752;9.180;2023-12-22T13:20:22;7.30;99.90
423;DHT22;198;48.752;9.180;2023-12-22T13:22:49;7.40;99.90
423;DHT22;198;48.752;9.180;2023-12-22T13:25:15;7.40;99.90
423;DHT22;198;48.752;9.180;2023-12-22T13:27:49;7.50;99.90
423;DHT22;198;48.752;9.180;2023-12-22T13:30:15;7.50;99.90
423;DHT22;198;48.752;9.180;2023-12-22T13:32:56;7.60;99.90
423;DHT22;198;48.752;9.180;2023-12-22T13:35:23;7.70;99.90
423;DHT22;198;48.752;9.180;2023-12-22T13:37:49;7.70;99.90
423;DHT22;198;48.752;9.180;2023-12-22T13:40:14;7.80;99.90
423;DHT22;198;48.752;9.180;2023-12-22T13:42:40;7.90;99.90
423;DHT22;198;48.752;9.180;2023-12-22T13:45:10;7.90;99.90
423;DHT22;198;48.752;9.180;2023-12-22T13:47:43;8.00;99.90
423;DHT22;198;48.752;9.180;2023-12-22T13:50:18;8.00;99.90
423;DHT22;198;48.752;9.180;2023-12-22T13:52:50;8.10;99.90
423;DHT22;198;48.752;9.180;2023-12-22T13:55:20;8.20;99.90
423;DHT22;198;48.752;9.180;2023-12-22T13:57:48;8.20;99.90
423;DHT22;198;48.752;9.180;2023-12-22T14:02:42;8.20;99.90
423;DHT22;198;48.752;9.180;2023-12-22T14:05:08;8.30;99.90
423;DHT22;198;48.752;9.180;2023-12-22T14:07:33;8.30;99.90
423;DHT22;198;48.752;9.180;2023-12-22T14:10:07;8.30;99.90
423;DHT22;198;48.752;9.180;2023-12-22T14:12:34;8.40;99.90
423;DHT22;198;48.752;9.180;2023-12-22T14:14:59;8.40;99.90
423;DHT22;198;48.752;9.180;2023-12-22T14:17:25;8.40;99.90
423;DHT22;198;48.752;9.180;2023-12-22T14:19:50;8.40;99.90
423;DHT22;198;48.752;9.180;2023-12-22T14:22:16;8.40;99.90
423;DHT22;198;48.752;9.180;2023-12-22T14:24:42;8.50;99.90
423;DHT22;198;48.752;9.180;2023-12-22T14:27:07;8.50;99.90
423;DHT22;198;48.752;9.180;2023-12-22T14:29:33;8.50;99.90
423;DHT22;198;48.752;9.180;2023-12-22T14:32:00;8.60;99.90
423;DHT22;198;48.752;9.180;2023-12-22T14:34:26;8.60;99.90
423;DHT22;198;48.752;9.180;2023-12-22T14:36:51;8.70;99.90
423;DHT22;198;48.752;9.180;2023-12-22T14:39:17;8.70;99.90
423;DHT22;198;48.752;9.180;2023-12-22T14:41:42;8.80;99.90
423;DHT22;198;48.752;9.180;2023-12-22T14:44:08;8.80;99.90
423;DHT22;198;48.752;9.180;2023-12-22T14:46:38;8.90;99.90
423;DHT22;198;48.752;9.180;2023-12-22T14:49:03;8.90;99.90
423;DHT22;198;48.752;9.180;2023-12-22T14:51:29;9.00;99.90
423;DHT22;198;48.752;9.180;2023-12-22T14:53:54;9.00;99.90
423;DHT22;198;48.752;9.180;2023-12-22T14:56:20;9.00;99.90
423;DHT22;198;48.752;9.180;2023-12-22T14:58:45;9.10;99.90
423;DHT22;198;48.752;9.180;2023-12-22T15:01:14;9.10;99.90
423;DHT22;198;48.752;9.180;2023-12-22T15:03:39;9.20;99.90
423;DHT22;198;48.752;9.180;2023-12-22T15:06:05;9.10;99.90
423;DHT22;198;48.752;9.180;2023-12-22T15:08:31;9.10;99.90
423;DHT22;198;48.752;9.180;2023-12-22T15:10:56;9.20;99.90
423;DHT22;198;48.752;9.180;2023-12-22T15:13:22;9.10;99.90
423;DHT22;198;48.752;9.180;2023-12-22T15:15:47;9.10;99.90
423;DHT22;198;48.752;9.180;2023-12-22T15:18:13;9.20;99.90
423;DHT22;198;48.752;9.180;2023-12-22T15:20:38;9.20;99.90
423;DHT22;198;48.752;9.180;2023-12-22T15:23:04;9.20;99.90
423;DHT22;198;48.752;9.180;2023-12-22T15:25:29;9.30;99.90
423;DHT22;198;48.752;9.180;2023-12-22T15:27:55;9.20;99.90
423;DHT22;198;48.752;9.180;2023-12-22T15:30:21;9.20;99.90
423;DHT22;198;48.752;9.180;2023-12-22T15:32:46;9.20;99.90
423;DHT22;198;48.752;9.180;2023-12-22T15:35:12;9.20;99.90
423;DHT22;198;48.752;9.180;2023-12-22T15:37:38;9.20;99.90
423;DHT22;198;48.752;9.180;2023-12-22T15:40:03;9.20;99.90
423;DHT22;198;48.752;9.180;2023-12-22T15:42:29;9.20;99.90
423;DHT22;198;48.752;9.180;2023-12-22T15:44:54;9.20;99.90
423;DHT22;198;48.752;9.180;2023-12-22T15:47:20;9.30;99.90
423;DHT22;198;48.752;9.180;2023-12-22T15:49:46;9.30;99.90
423;DHT22;198;48.752;9.180;2023-12-22T15:52:12;9.30;99.90
423;DHT22;198;48.752;9.180;2023-12-22T15:54:39;9.30;99.90
423;DHT22;198;48.752;9.180;2023-12-22T15:57:04;9.30;99.90
423;DHT22;198;48.752;9.180;2023-12-22T15:59:30;9.40;99.90
423;DHT22;198;48.752;9.180;2023-12-22T16:01:55;9.30;99.90
423;DHT22;198;48.752;9.180;2023-12-22T16:04:21;9.40;99.90
423;DHT22;198;48.752;9.180;2023-12-22T16:06:46;9.40;99.90
423;DHT22;198;48.752;9.180;2023-12-22T16:09:12;9.40;99.90
423;DHT22;198;48.752;9.180;2023-12-22T16:11:39;9.40;99.90
423;DHT22;198;48.752;9.180;2023-12-22T16:14:04;9.40;99.90
423;DHT22;198;48.752;9.180;2023-12-22T16:16:30;9.50;99.90
423;DHT22;198;48.752;9.180;2023-12-22T16:18:55;9.40;99.90
423;DHT22;198;48.752;9.180;2023-12-22T16:21:20;9.50;99.90
423;DHT22;198;48.752;9.180;2023-12-22T16:23:46;9.40;99.90
423;DHT22;198;48.752;9.180;2023-12-22T16:26:12;9.40;99.90
423;DHT22;198;48.752;9.180;2023-12-22T16:28:38;9.50;99.90
423;DHT22;198;48.752;9.180;2023-12-22T16:31:03;9.50;99.90
423;DHT22;198;48.752;9.180;2023-12-22T16:33:29;9.50;99.90
423;DHT22;198;48.752;9.180;2023-12-22T16:35:54;9.50;99.90
423;DHT22;198;48.752;9.180;2023-12-22T16:38:20;9.50;99.90
423;DHT22;198;48.752;9.180;2023-12-22T16:40:45;9.50;99.90
423;DHT22;198;48.752;9.180;2023-12-22T16:43:11;9.50;99.90
423;DHT22;198;48.752;9.180;2023-12-22T16:45:39;9.50;99.90
423;DHT22;198;48.752;9.180;2023-12-22T16:48:05;9.50;99.90
423;DHT22;198;48.752;9.180;2023-12-22T16:50:31;9.50;99.90
423;DHT22;198;48.752;9.180;2023-12-22T16:52:56;9.50;99.90
423;DHT22;198;48.752;9.180;2023-12-22T16:55:22;9.50;99.90
423;DHT22;198;48.752;9.180;2023-12-22T16:57:47;9.50;99.90
423;DHT22;198;48.752;9.180;2023-12-22T17:00:13;9.50;99.90
423;DHT22;198;48.752;9.180;2023-12-22T17:02:40;9.50;99.90